Time;durP1;ratioP1;P1;durP2;ratioP2;P2;SDS_P1;SDS_P2;PMS_P1;PMS_P2;Temp;Humidity;BMP_temperature;BMP_pressure;BME280_temperature;BME280_humidity;BME280_pressure;Samples;Min_cycle;Max_cycle;Signal;HPM_P1;HPM_P2
2021/12/26 00:02:54;;;;;;;27.30;15.63;;;;;;;1.85;100.00;99574.72;20796194;28;20042;-81
2021/12/26 00:12:58;;;;;;;29.15;16.13;;;;;;;1.87;100.00;99573.00;20796901;28;20542;-82
2021/12/26 00:22:59;;;;;;;45.35;21.90;;;;;;;1.92;100.00;99577.34;20799095;28;20042;-80
2021/12/26 00:33:01;;;;;;;39.10;20.08;;;;;;;1.84;100.00;99568.69;20781791;28;20506;-81
2021/12/26 00:43:03;;;;;;;46.13;22.42;;;;;;;1.93;100.00;99570.47;20773164;28;20408;-81
2021/12/26 00:53:04;;;;;;;55.90;25.88;;;;;;;2.00;100.00;99561.88;20767633;28;20050;-81
2021/12/26 01:03:07;;;;;;;53.40;24.25;;;;;;;1.93;100.00;99552.41;20780532;28;20072;-81
2021/12/26 01:13:17;;;;;;;49.10;23.17;;;;;;;1.92;100.00;99548.97;20783121;28;20478;-81
2021/12/26 01:23:21;;;;;;;52.13;23.92;;;;;;;1.90;100.00;99552.38;20787749;28;20058;-81
2021/12/26 01:33:23;;;;;;;53.87;25.10;;;;;;;1.83;100.00;99573.84;20770961;28;20045;-81
2021/12/26 01:43:30;;;;;;;59.38;26.75;;;;;;;1.78;100.00;99568.66;20769598;28;20093;-81
2021/12/26 01:53:39;;;;;;;60.22;27.02;;;;;;;1.83;100.00;99566.13;20772811;28;20045;-82
2021/12/26 02:03:41;;;;;;;55.67;24.27;;;;;;;1.88;100.00;99569.59;20786253;28;20042;-81
2021/12/26 02:13:43;;;;;;;53.53;25.02;;;;;;;1.76;100.00;99571.22;20788607;28;20054;-81
2021/12/26 02:24:01;;;;;;;61.95;25.23;;;;;;;1.82;100.00;99569.53;20811187;28;20539;-82
2021/12/26 02:34:03;;;;;;;58.85;26.95;;;;;;;1.78;100.00;99559.19;20819439;28;20111;-81
2021/12/26 02:44:04;;;;;;;60.63;26.40;;;;;;;1.71;100.00;99554.84;20821801;28;20442;-81
2021/12/26 02:54:06;;;;;;;55.63;26.50;;;;;;;1.77;100.00;99557.47;20808464;28;20054;-81
2021/12/26 03:04:09;;;;;;;58.38;26.98;;;;;;;1.77;100.00;99557.47;20836565;28;20634;-82
2021/12/26 03:14:11;;;;;;;58.80;26.53;;;;;;;1.76;100.00;99549.72;20808123;28;20049;-82
2021/12/26 03:24:13;;;;;;;61.20;27.88;;;;;;;1.69;100.00;99556.56;20794185;28;20459;-82
2021/12/26 03:34:16;;;;;;;58.90;28.10;;;;;;;1.61;100.00;99560.78;20776408;28;20120;-82
2021/12/26 03:44:18;;;;;;;61.30;27.35;;;;;;;1.61;100.00;99558.22;20756630;28;20458;-82
2021/12/26 03:54:19;;;;;;;59.65;27.17;;;;;;;1.52;100.00;99555.56;20802067;28;20053;-82
2021/12/26 04:04:21;;;;;;;60.92;29.50;;;;;;;1.48;100.00;99558.97;20788548;28;20498;-82
2021/12/26 04:14:22;;;;;;;64.43;29.70;;;;;;;1.62;100.00;99549.63;20781202;28;20049;-82
2021/12/26 04:24:24;;;;;;;61.88;28.35;;;;;;;1.48;100.00;99559.84;20815528;28;20491;-82
2021/12/26 04:34:25;;;;;;;58.53;27.60;;;;;;;1.45;100.00;99552.09;20758831;28;20045;-82
2021/12/26 04:44:28;;;;;;;57.22;27.67;;;;;;;1.48;100.00;99564.13;20771766;28;20045;-82
2021/12/26 04:54:29;;;;;;;58.97;27.15;;;;;;;1.47;100.00;99558.13;20771298;28;20542;-82
2021/12/26 05:04:31;;;;;;;56.30;26.77;;;;;;;1.42;100.00;99556.38;20774913;28;20097;-81
2021/12/26 05:14:32;;;;;;;57.35;27.95;;;;;;;1.47;100.00;99558.13;20783412;28;20514;-82
2021/12/26 05:24:34;;;;;;;57.85;27.10;;;;;;;1.53;100.00;99552.13;20772349;28;20061;-82
2021/12/26 05:34:35;;;;;;;56.65;26.70;;;;;;;1.55;100.00;99550.44;20777523;28;20470;-82
2021/12/26 05:44:37;;;;;;;58.80;27.13;;;;;;;1.50;100.00;99557.28;20797334;28;20111;-82
2021/12/26 05:54:38;;;;;;;57.50;26.90;;;;;;;1.43;100.00;99545.19;20812106;28;20042;-82
2021/12/26 06:04:40;;;;;;;61.97;27.55;;;;;;;1.43;100.00;99550.34;20777982;28;20487;-83
2021/12/26 06:14:44;;;;;;;54.97;26.33;;;;;;;1.41;100.00;99545.19;20786770;28;20438;-82
2021/12/26 06:24:46;;;;;;;59.90;25.52;;;;;;;1.42;100.00;99551.19;20798988;28;20042;-82
2021/12/26 06:34:47;;;;;;;57.97;26.90;;;;;;;1.41;100.00;99554.63;20794392;28;20038;-82
2021/12/26 06:44:49;;;;;;;58.40;26.88;;;;;;;1.38;100.00;99550.31;20766746;28;20068;-82
2021/12/26 06:54:51;;;;;;;58.28;26.85;;;;;;;1.49;100.00;99573.63;20793734;28;20105;-82
2021/12/26 07:04:53;;;;;;;55.95;26.88;;;;;;;1.50;100.00;99571.06;20793729;28;20042;-82
2021/12/26 07:14:54;;;;;;;55.95;24.95;;;;;;;1.44;100.00;99577.88;20796828;28;20096;-83
2021/12/26 07:24:56;;;;;;;55.13;25.92;;;;;;;1.43;100.00;99582.16;20790581;28;20053;-81
2021/12/26 07:34:58;;;;;;;57.95;26.08;;;;;;;1.46;100.00;99581.34;20778532;28;20474;-82
2021/12/26 07:45:00;;;;;;;57.58;25.23;;;;;;;1.44;100.00;99586.50;20758714;28;20045;-81
2021/12/26 07:55:03;;;;;;;58.78;25.55;;;;;;;1.44;100.00;99591.66;20814163;28;20053;-81
2021/12/26 08:05:05;;;;;;;54.17;25.80;;;;;;;1.56;100.00;99597.75;20820595;28;20114;-81
2021/12/26 08:15:07;;;;;;;55.05;26.20;;;;;;;1.55;100.00;99602.03;20806400;28;20125;-80
2021/12/26 08:25:09;;;;;;;53.20;25.08;;;;;;;1.60;100.00;99608.09;20779888;28;20059;-81
2021/12/26 08:35:11;;;;;;;58.53;28.30;;;;;;;1.49;100.00;99596.84;20798805;28;20072;-80
2021/12/26 08:45:13;;;;;;;63.05;28.02;;;;;;;1.67;100.00;99603.84;20801893;28;20483;-81
2021/12/26 08:55:14;;;;;;;58.60;27.55;;;;;;;1.57;100.00;99610.66;20752363;28;20060;-82
2021/12/26 09:05:17;;;;;;;63.20;28.15;;;;;;;1.67;100.00;99612.44;20742699;28;20111;-80
2021/12/26 09:15:18;;;;;;;63.80;27.65;;;;;;;1.66;100.00;99615.88;20799362;28;20050;-81
2021/12/26 09:25:20;;;;;;;57.05;27.42;;;;;;;1.84;100.00;99624.63;20795756;28;20045;-81
2021/12/26 09:35:22;;;;;;;57.38;26.38;;;;;;;1.87;100.00;99629.78;20776707;28;20687;-81
2021/12/26 09:45:24;;;;;;;60.92;27.88;;;;;;;2.03;100.00;99631.63;20761319;28;20054;-82
2021/12/26 09:55:27;;;;;;;52.47;26.30;;;;;;;2.03;100.00;99626.47;20776448;28;20050;-82
2021/12/26 10:05:29;;;;;;;53.60;26.42;;;;;;;2.06;100.00;99618.75;20781703;28;20042;-82
2021/12/26 10:15:47;;;;;;;55.08;25.33;;;;;;;2.17;100.00;99608.47;20786654;28;20055;-81
2021/12/26 10:25:48;;;;;;;61.00;25.90;;;;;;;2.09;100.00;99594.66;20831921;28;20095;-81
2021/12/26 10:35:50;;;;;;;55.47;27.08;;;;;;;2.17;100.00;99580.94;20775837;28;20103;-82
2021/12/26 10:45:51;;;;;;;62.92;27.95;;;;;;;2.24;100.00;99574.91;20810567;28;20046;-82
2021/12/26 10:55:55;;;;;;;59.38;27.67;;;;;;;2.30;100.00;99567.22;20776163;28;20104;-82
2021/12/26 11:06:02;;;;;;;60.37;28.07;;;;;;;2.64;100.00;99557.00;20792861;28;20038;-82
2021/12/26 11:16:06;;;;;;;63.80;29.38;;;;;;;2.68;100.00;99566.47;20790587;28;20050;-83
2021/12/26 11:26:13;;;;;;;52.38;25.77;;;;;;;2.62;100.00;99556.13;20750719;28;20140;-82
2021/12/26 11:36:15;;;;;;;58.80;27.50;;;;;;;2.71;100.00;99553.56;20759041;28;20104;-82
2021/12/26 11:46:36;;;;;;;56.00;27.08;;;;;;;2.72;100.00;99544.94;20778046;28;20100;-82
2021/12/26 11:56:49;;;;;;;46.92;23.50;;;;;;;2.92;100.00;99541.53;20798296;28;20080;-82
2021/12/26 12:06:55;;;;;;;50.60;24.67;;;;;;;3.16;100.00;99522.56;20786590;28;20033;-82
2021/12/26 12:17:17;;;;;;;47.55;22.48;;;;;;;3.15;100.00;99507.91;20802753;28;20476;-82
2021/12/26 12:27:20;;;;;;;52.35;23.08;;;;;;;3.24;100.00;99510.50;20765683;28;20042;-82
2021/12/26 12:37:38;;;;;;;49.00;22.80;;;;;;;3.20;100.00;99517.41;20781885;28;20068;-82
2021/12/26 12:47:39;;;;;;;49.97;24.35;;;;;;;3.36;100.00;99514.84;20826676;28;20099;-83
2021/12/26 12:57:45;;;;;;;60.50;27.67;;;;;;;3.46;100.00;99501.88;20811377;28;20544;-82
2021/12/26 13:07:46;;;;;;;53.22;24.23;;;;;;;3.47;100.00;99493.25;20809074;28;20088;-81
2021/12/26 13:17:48;;;;;;;48.63;24.23;;;;;;;3.41;100.00;99495.00;20788416;28;20050;-81
2021/12/26 13:27:51;;;;;;;48.63;24.45;;;;;;;3.43;100.00;99495.84;20747676;28;20054;-83
2021/12/26 13:37:56;;;;;;;57.78;24.15;;;;;;;3.47;100.00;99493.25;20797254;28;20053;-83
2021/12/26 13:47:58;;;;;;;59.30;27.40;;;;;;;3.46;100.00;99481.19;20765787;28;20045;-83
2021/12/26 13:58:02;;;;;;;73.35;32.45;;;;;;;3.49;100.00;99473.38;20801517;28;20535;-83
2021/12/26 14:08:13;;;;;;;72.82;31.92;;;;;;;3.44;100.00;99476.84;20815527;28;20135;-82
2021/12/26 14:18:35;;;;;;;67.43;29.17;;;;;;;3.44;100.00;99471.69;20828460;28;20054;-83
2021/12/26 14:28:46;;;;;;;82.50;32.35;;;;;;;3.41;100.00;99476.88;20774325;28;20108;-83
2021/12/26 14:38:57;;;;;;;72.90;32.13;;;;;;;3.45;100.00;99473.38;20806919;28;20498;-83
2021/12/26 14:49:08;;;;;;;78.20;32.47;;;;;;;3.50;100.00;99494.97;20835149;28;20050;-82
2021/12/26 14:59:23;;;;;;;79.82;33.25;;;;;;;3.43;100.00;99490.66;20765460;28;20046;-82
2021/12/26 15:09:32;;;;;;;80.65;32.47;;;;;;;3.45;100.00;99483.75;20814158;28;20470;-82
2021/12/26 15:19:38;;;;;;;80.70;32.00;;;;;;;3.39;100.00;99483.75;20795900;28;20053;-81
2021/12/26 15:29:40;;;;;;;71.80;30.20;;;;;;;3.31;100.00;99483.78;20800719;28;20045;-80
2021/12/26 15:39:42;;;;;;;63.83;28.33;;;;;;;3.36;100.00;99478.59;20814816;28;20092;-79
2021/12/26 15:49:43;;;;;;;64.80;28.50;;;;;;;3.27;100.00;99477.75;20801310;28;20049;-80
2021/12/26 15:59:45;;;;;;;73.43;29.67;;;;;;;3.31;100.00;99476.03;20802617;28;20510;-80
2021/12/26 16:09:46;;;;;;;72.25;32.92;;;;;;;3.27;100.00;99477.75;20808978;28;20038;-81
2021/12/26 16:19:48;;;;;;;67.03;30.52;;;;;;;3.32;100.00;99459.63;20765270;28;20053;-79
2021/12/26 16:29:49;;;;;;;66.10;28.38;;;;;;;3.11;100.00;99447.56;20815128;28;20505;-81
2021/12/26 16:39:51;;;;;;;65.05;30.17;;;;;;;3.07;100.00;99451.06;20803955;28;20044;-81
2021/12/26 16:49:53;;;;;;;73.00;32.13;;;;;;;3.14;100.00;99447.56;20792881;28;20457;-81
2021/12/26 16:59:56;;;;;;;73.20;31.30;;;;;;;3.12;100.00;99449.31;20797131;28;20491;-81
2021/12/26 17:09:58;;;;;;;121.50;46.63;;;;;;;3.23;100.00;99444.97;20796637;28;20038;-80
2021/12/26 17:20:00;;;;;;;149.63;58.25;;;;;;;3.25;100.00;99439.78;20784786;28;20046;-81
2021/12/26 17:30:08;;;;;;;75.55;34.33;;;;;;;3.22;100.00;99447.59;20785695;28;20049;-80
2021/12/26 17:40:09;;;;;;;74.70;35.13;;;;;;;3.23;100.00;99447.56;20825520;28;20048;-81
2021/12/26 17:50:12;;;;;;;79.95;33.67;;;;;;;3.23;100.00;99438.94;20809677;28;20099;-81
2021/12/26 18:00:17;;;;;;;83.18;34.05;;;;;;;3.32;100.00;99434.63;20759252;28;20099;-80
2021/12/26 18:10:19;;;;;;;83.38;34.78;;;;;;;3.24;100.00;99423.41;20833377;28;20037;-79
2021/12/26 18:20:24;;;;;;;78.05;34.60;;;;;;;3.34;100.00;99424.25;20778060;28;20104;-80
2021/12/26 18:30:26;;;;;;;93.88;40.15;;;;;;;3.32;100.00;99413.91;20766299;28;20046;-80
2021/12/26 18:40:29;;;;;;;69.93;31.33;;;;;;;3.31;100.00;99411.34;20752788;28;20653;-81
2021/12/26 18:50:32;;;;;;;72.40;30.80;;;;;;;3.33;100.00;99407.03;20800833;28;20053;-81
2021/12/26 19:00:36;;;;;;;64.22;28.02;;;;;;;3.31;100.00;99417.38;20805237;28;20095;-81
2021/12/26 19:10:38;;;;;;;62.00;29.33;;;;;;;3.27;100.00;99407.03;20797009;28;20052;-81
2021/12/26 19:20:39;;;;;;;66.75;28.42;;;;;;;3.28;100.00;99399.28;20853936;28;20109;-81
2021/12/26 19:30:41;;;;;;;61.97;28.25;;;;;;;3.22;100.00;99383.78;20827631;28;20050;-81
2021/12/26 19:40:43;;;;;;;57.15;26.63;;;;;;;3.30;100.00;99389.75;20824201;28;20450;-81
2021/12/26 19:50:46;;;;;;;67.22;32.72;;;;;;;3.27;100.00;99386.34;20815227;28;20545;-80
2021/12/26 20:00:47;;;;;;;57.83;26.90;;;;;;;3.32;100.00;99394.97;20802761;28;20054;-80
2021/12/26 20:10:49;;;;;;;67.95;29.98;;;;;;;3.37;100.00;99390.63;20817952;28;20050;-82
2021/12/26 20:20:54;;;;;;;55.33;25.73;;;;;;;3.36;100.00;99385.47;20817156;28;20077;-82
2021/12/26 20:30:56;;;;;;;59.13;26.08;;;;;;;3.40;100.00;99394.91;20816288;28;20144;-81
2021/12/26 20:40:57;;;;;;;56.13;24.15;;;;;;;3.38;100.00;99381.13;20776895;28;20824;-80
2021/12/26 20:51:03;;;;;;;56.50;24.65;;;;;;;3.43;100.00;99381.97;20818675;28;20517;-81
2021/12/26 21:01:07;;;;;;;53.90;24.92;;;;;;;3.41;100.00;99374.22;20793283;28;20118;-83
2021/12/26 21:11:09;;;;;;;57.07;25.93;;;;;;;3.45;100.00;99363.00;20809208;28;20076;-81
2021/12/26 21:21:11;;;;;;;53.85;24.55;;;;;;;3.45;100.00;99363.00;20813380;28;20544;-81
2021/12/26 21:31:13;;;;;;;53.08;24.08;;;;;;;3.40;100.00;99353.53;20809065;28;20109;-81
2021/12/26 21:41:14;;;;;;;52.72;24.90;;;;;;;3.48;100.00;99355.22;20805443;28;20046;-81
2021/12/26 21:51:16;;;;;;;131.27;48.28;;;;;;;3.47;100.00;99356.09;20774019;28;20115;-80
2021/12/26 22:01:18;;;;;;;56.55;24.98;;;;;;;3.53;100.00;99363.81;20810421;28;20054;-81
2021/12/26 22:11:19;;;;;;;58.30;26.15;;;;;;;3.66;100.00;99350.84;20821744;28;20111;-82
2021/12/26 22:21:22;;;;;;;54.25;25.60;;;;;;;3.68;100.00;99362.88;20820094;28;20076;-81
2021/12/26 22:31:23;;;;;;;53.17;24.67;;;;;;;3.68;100.00;99352.53;20822411;28;20121;-82
2021/12/26 22:41:25;;;;;;;47.03;22.75;;;;;;;3.67;100.00;99345.66;20848168;28;20068;-82
2021/12/26 22:51:26;;;;;;;44.58;21.65;;;;;;;3.73;100.00;99349.94;20829642;28;20174;-82
2021/12/26 23:01:29;;;;;;;51.72;25.50;;;;;;;3.64;100.00;99344.78;20830609;28;20050;-81
2021/12/26 23:11:32;;;;;;;39.55;20.42;;;;;;;3.75;100.00;99356.84;20811162;28;20496;-82
2021/12/26 23:21:34;;;;;;;39.45;20.70;;;;;;;3.79;100.00;99343.00;20813656;28;20379;-81
2021/12/26 23:31:36;;;;;;;39.33;21.08;;;;;;;3.79;100.00;99337.84;20833980;28;20049;-82
2021/12/26 23:41:43;;;;;;;38.78;20.95;;;;;;;3.84;100.00;99333.47;20808740;28;20052;-82
2021/12/26 23:51:44;;;;;;;35.17;17.52;;;;;;;3.84;100.00;99336.06;20809920;28;20050;-82
